Terminal Aerodrome Forecast
Issued by NWS

Home | Current Version | Previous Version | Text Only | Print | Product List | Glossary On
Versions: 1 2 3 4 5 6 7 8 9 10 11 12 13 14 15 16 17 18 19 20 21 22 23 24 25 26 27 28 29 30 31 32 33 34 35 36 37 38 39 40 41 42 43 44
000
FTAK31 PAFA 231143
TAFAOM
TAF
PAOM 231143Z 2312/2412 10005KT P6SM SCT008 BKN045 OVC060
     FM231400 09015G25KT 3SM -RA BR BKN020 OVC040
     FM232000 13022G30KT P6SM VCSH BKN040
     FM232200 11015KT P6SM VCSH BKN050=

USA.gov is the U.S. government's official web portal to all federal, state and local government web resources and services.